sensor_id;sensor_type;location;lat;lon;timestamp;P1;P2;P0
55485;PMS5003;71262;-25.924;28.194;2023-12-04T00:01:05;17;13;
55485;PMS5003;71262;-25.924;28.194;2023-12-04T00:03:30;27;17;
55485;PMS5003;71262;-25.924;28.194;2023-12-04T00:05:55;6;6;
55485;PMS5003;71262;-25.924;28.194;2023-12-04T00:08:20;11;9;
55485;PMS5003;71262;-25.924;28.194;2023-12-04T00:10:46;20;16;
55485;PMS5003;71262;-25.924;28.194;2023-12-04T00:13:11;57;41;
55485;PMS5003;71262;-25.924;28.194;2023-12-04T00:15:37;23;17;
55485;PMS5003;71262;-25.924;28.194;2023-12-04T00:18:02;11;9;
55485;PMS5003;71262;-25.924;28.194;2023-12-04T00:20:27;10;9;
55485;PMS5003;71262;-25.924;28.194;2023-12-04T00:22:52;10;9;
55485;PMS5003;71262;-25.924;28.194;2023-12-04T00:25:17;11;10;
55485;PMS5003;71262;-25.924;28.194;2023-12-04T00:27:42;8;8;
55485;PMS5003;71262;-25.924;28.194;2023-12-04T00:30:08;8;8;
55485;PMS5003;71262;-25.924;28.194;2023-12-04T00:32:33;9;9;
55485;PMS5003;71262;-25.924;28.194;2023-12-04T00:34:58;9;9;
55485;PMS5003;71262;-25.924;28.194;2023-12-04T00:37:23;9;9;
55485;PMS5003;71262;-25.924;28.194;2023-12-04T00:39:48;8;8;
55485;PMS5003;71262;-25.924;28.194;2023-12-04T00:42:13;6;5;
55485;PMS5003;71262;-25.924;28.194;2023-12-04T00:44:38;11;11;
55485;PMS5003;71262;-25.924;28.194;2023-12-04T00:47:03;10;10;
55485;PMS5003;71262;-25.924;28.194;2023-12-04T00:49:28;6;6;
55485;PMS5003;71262;-25.924;28.194;2023-12-04T00:51:54;6;6;
55485;PMS5003;71262;-25.924;28.194;2023-12-04T00:54:19;10;8;
55485;PMS5003;71262;-25.924;28.194;2023-12-04T00:56:44;9;7;
55485;PMS5003;71262;-25.924;28.194;2023-12-04T00:59:09;6;6;
55485;PMS5003;71262;-25.924;28.194;2023-12-04T01:01:35;12;12;
55485;PMS5003;71262;-25.924;28.194;2023-12-04T01:03:59;12;12;
55485;PMS5003;71262;-25.924;28.194;2023-12-04T01:06:24;9;8;
55485;PMS5003;71262;-25.924;28.194;2023-12-04T01:08:50;7;7;
55485;PMS5003;71262;-25.924;28.194;2023-12-04T01:11:15;7;6;
55485;PMS5003;71262;-25.924;28.194;2023-12-04T01:13:40;8;8;
55485;PMS5003;71262;-25.924;28.194;2023-12-04T01:16:05;9;8;
55485;PMS5003;71262;-25.924;28.194;2023-12-04T01:18:30;9;9;
55485;PMS5003;71262;-25.924;28.194;2023-12-04T01:20:56;9;8;
55485;PMS5003;71262;-25.924;28.194;2023-12-04T01:23:21;7;7;
55485;PMS5003;71262;-25.924;28.194;2023-12-04T01:25:46;9;9;
55485;PMS5003;71262;-25.924;28.194;2023-12-04T01:28:11;8;8;
55485;PMS5003;71262;-25.924;28.194;2023-12-04T01:30:36;8;7;
55485;PMS5003;71262;-25.924;28.194;2023-12-04T01:33:01;9;9;
55485;PMS5003;71262;-25.924;28.194;2023-12-04T01:35:27;8;8;
55485;PMS5003;71262;-25.924;28.194;2023-12-04T01:37:52;9;9;
55485;PMS5003;71262;-25.924;28.194;2023-12-04T01:40:18;6;6;
55485;PMS5003;71262;-25.924;28.194;2023-12-04T01:42:44;6;5;
55485;PMS5003;71262;-25.924;28.194;2023-12-04T01:45:09;11;9;
55485;PMS5003;71262;-25.924;28.194;2023-12-04T01:47:34;7;7;
55485;PMS5003;71262;-25.924;28.194;2023-12-04T01:50:00;9;7;
55485;PMS5003;71262;-25.924;28.194;2023-12-04T01:52:25;9;9;
55485;PMS5003;71262;-25.924;28.194;2023-12-04T01:54:50;4;4;
55485;PMS5003;71262;-25.924;28.194;2023-12-04T01:57:15;7;5;
55485;PMS5003;71262;-25.924;28.194;2023-12-04T01:59:40;7;7;
55485;PMS5003;71262;-25.924;28.194;2023-12-04T02:02:06;10;10;
55485;PMS5003;71262;-25.924;28.194;2023-12-04T02:04:31;7;7;
55485;PMS5003;71262;-25.924;28.194;2023-12-04T02:06:56;7;7;
55485;PMS5003;71262;-25.924;28.194;2023-12-04T02:09:21;7;7;
55485;PMS5003;71262;-25.924;28.194;2023-12-04T02:11:46;7;6;
55485;PMS5003;71262;-25.924;28.194;2023-12-04T02:14:12;8;6;
55485;PMS5003;71262;-25.924;28.194;2023-12-04T02:16:38;9;8;
55485;PMS5003;71262;-25.924;28.194;2023-12-04T02:19:03;6;6;
55485;PMS5003;71262;-25.924;28.194;2023-12-04T02:21:28;8;7;
55485;PMS5003;71262;-25.924;28.194;2023-12-04T02:23:53;7;7;
55485;PMS5003;71262;-25.924;28.194;2023-12-04T02:26:18;6;5;
55485;PMS5003;71262;-25.924;28.194;2023-12-04T02:28:44;91;68;
55485;PMS5003;71262;-25.924;28.194;2023-12-04T02:31:09;88;61;
55485;PMS5003;71262;-25.924;28.194;2023-12-04T02:33:34;38;27;
55485;PMS5003;71262;-25.924;28.194;2023-12-04T02:35:59;14;12;
55485;PMS5003;71262;-25.924;28.194;2023-12-04T02:38:25;7;7;
55485;PMS5003;71262;-25.924;28.194;2023-12-04T02:40:50;5;5;
55485;PMS5003;71262;-25.924;28.194;2023-12-04T02:43:16;13;12;
55485;PMS5003;71262;-25.924;28.194;2023-12-04T02:45:41;8;7;
55485;PMS5003;71262;-25.924;28.194;2023-12-04T02:48:07;8;8;
55485;PMS5003;71262;-25.924;28.194;2023-12-04T02:50:31;10;10;
55485;PMS5003;71262;-25.924;28.194;2023-12-04T02:52:56;11;10;
55485;PMS5003;71262;-25.924;28.194;2023-12-04T02:55:21;7;7;
55485;PMS5003;71262;-25.924;28.194;2023-12-04T02:57:46;9;9;
55485;PMS5003;71262;-25.924;28.194;2023-12-04T03:00:12;26;19;
55485;PMS5003;71262;-25.924;28.194;2023-12-04T03:02:37;13;11;
55485;PMS5003;71262;-25.924;28.194;2023-12-04T03:05:02;8;8;
55485;PMS5003;71262;-25.924;28.194;2023-12-04T03:07:27;9;9;
55485;PMS5003;71262;-25.924;28.194;2023-12-04T03:09:52;6;6;
55485;PMS5003;71262;-25.924;28.194;2023-12-04T03:12:17;9;8;
55485;PMS5003;71262;-25.924;28.194;2023-12-04T03:14:43;8;7;
55485;PMS5003;71262;-25.924;28.194;2023-12-04T03:17:08;9;8;
55485;PMS5003;71262;-25.924;28.194;2023-12-04T03:19:33;12;10;
55485;PMS5003;71262;-25.924;28.194;2023-12-04T03:21:58;10;10;
55485;PMS5003;71262;-25.924;28.194;2023-12-04T03:24:23;10;10;
55485;PMS5003;71262;-25.924;28.194;2023-12-04T03:26:48;9;9;
55485;PMS5003;71262;-25.924;28.194;2023-12-04T03:29:13;10;10;
55485;PMS5003;71262;-25.924;28.194;2023-12-04T03:31:38;9;9;
55485;PMS5003;71262;-25.924;28.194;2023-12-04T03:34:03;10;10;
55485;PMS5003;71262;-25.924;28.194;2023-12-04T03:36:28;9;9;
55485;PMS5003;71262;-25.924;28.194;2023-12-04T03:38:54;10;10;
55485;PMS5003;71262;-25.924;28.194;2023-12-04T03:41:19;10;9;
55485;PMS5003;71262;-25.924;28.194;2023-12-04T03:43:44;10;10;
55485;PMS5003;71262;-25.924;28.194;2023-12-04T03:46:10;9;8;
55485;PMS5003;71262;-25.924;28.194;2023-12-04T03:48:34;11;10;
55485;PMS5003;71262;-25.924;28.194;2023-12-04T03:51:00;10;10;
55485;PMS5003;71262;-25.924;28.194;2023-12-04T03:53:25;13;11;
55485;PMS5003;71262;-25.924;28.194;2023-12-04T03:55:50;12;12;
55485;PMS5003;71262;-25.924;28.194;2023-12-04T03:58:15;9;9;
55485;PMS5003;71262;-25.924;28.194;2023-12-04T04:00:41;12;10;
55485;PMS5003;71262;-25.924;28.194;2023-12-04T04:03:06;10;9;
55485;PMS5003;71262;-25.924;28.194;2023-12-04T04:05:31;12;11;
55485;PMS5003;71262;-25.924;28.194;2023-12-04T04:07:56;9;9;
55485;PMS5003;71262;-25.924;28.194;2023-12-04T04:10:21;10;10;
55485;PMS5003;71262;-25.924;28.194;2023-12-04T04:12:46;12;11;
55485;PMS5003;71262;-25.924;28.194;2023-12-04T04:15:11;9;9;
55485;PMS5003;71262;-25.924;28.194;2023-12-04T04:17:37;12;11;
55485;PMS5003;71262;-25.924;28.194;2023-12-04T04:20:03;10;10;
55485;PMS5003;71262;-25.924;28.194;2023-12-04T04:22:27;10;10;
55485;PMS5003;71262;-25.924;28.194;2023-12-04T04:24:52;11;10;
55485;PMS5003;71262;-25.924;28.194;2023-12-04T04:27:17;12;11;
55485;PMS5003;71262;-25.924;28.194;2023-12-04T04:29:42;11;11;
55485;PMS5003;71262;-25.924;28.194;2023-12-04T04:32:07;12;10;
55485;PMS5003;71262;-25.924;28.194;2023-12-04T04:34:33;14;11;
55485;PMS5003;71262;-25.924;28.194;2023-12-04T04:36:58;15;11;
55485;PMS5003;71262;-25.924;28.194;2023-12-04T04:39:25;9;9;
55485;PMS5003;71262;-25.924;28.194;2023-12-04T04:41:48;12;11;
55485;PMS5003;71262;-25.924;28.194;2023-12-04T04:44:14;9;9;
55485;PMS5003;71262;-25.924;28.194;2023-12-04T04:46:39;12;12;
55485;PMS5003;71262;-25.924;28.194;2023-12-04T04:49:05;65;52;
55485;PMS5003;71262;-25.924;28.194;2023-12-04T04:51:30;54;41;
55485;PMS5003;71262;-25.924;28.194;2023-12-04T04:53:56;49;41;
55485;PMS5003;71262;-25.924;28.194;2023-12-04T04:56:21;42;35;
55485;PMS5003;71262;-25.924;28.194;2023-12-04T04:58:47;18;15;
55485;PMS5003;71262;-25.924;28.194;2023-12-04T05:01:13;14;14;
55485;PMS5003;71262;-25.924;28.194;2023-12-04T05:03:38;14;14;
55485;PMS5003;71262;-25.924;28.194;2023-12-04T05:06:04;16;15;
55485;PMS5003;71262;-25.924;28.194;2023-12-04T05:08:28;13;13;
55485;PMS5003;71262;-25.924;28.194;2023-12-04T05:10:54;16;14;
55485;PMS5003;71262;-25.924;28.194;2023-12-04T05:13:19;11;9;
55485;PMS5003;71262;-25.924;28.194;2023-12-04T05:15:44;13;12;
55485;PMS5003;71262;-25.924;28.194;2023-12-04T05:18:09;13;12;
55485;PMS5003;71262;-25.924;28.194;2023-12-04T05:20:34;15;12;
55485;PMS5003;71262;-25.924;28.194;2023-12-04T05:22:59;17;17;
55485;PMS5003;71262;-25.924;28.194;2023-12-04T05:25:25;14;12;
55485;PMS5003;71262;-25.924;28.194;2023-12-04T05:27:50;22;18;
55485;PMS5003;71262;-25.924;28.194;2023-12-04T05:30:16;22;17;
55485;PMS5003;71262;-25.924;28.194;2023-12-04T05:32:41;9;9;
55485;PMS5003;71262;-25.924;28.194;2023-12-04T05:35:07;11;10;
55485;PMS5003;71262;-25.924;28.194;2023-12-04T05:37:31;17;15;
55485;PMS5003;71262;-25.924;28.194;2023-12-04T05:39:56;19;17;
55485;PMS5003;71262;-25.924;28.194;2023-12-04T05:42:22;16;13;
55485;PMS5003;71262;-25.924;28.194;2023-12-04T05:44:47;15;11;
55485;PMS5003;71262;-25.924;28.194;2023-12-04T05:47:12;37;30;
55485;PMS5003;71262;-25.924;28.194;2023-12-04T05:49:38;13;12;
55485;PMS5003;71262;-25.924;28.194;2023-12-04T05:52:03;9;9;
55485;PMS5003;71262;-25.924;28.194;2023-12-04T05:54:28;13;10;
55485;PMS5003;71262;-25.924;28.194;2023-12-04T05:56:53;9;9;
55485;PMS5003;71262;-25.924;28.194;2023-12-04T05:59:18;8;8;
55485;PMS5003;71262;-25.924;28.194;2023-12-04T06:01:43;8;7;
55485;PMS5003;71262;-25.924;28.194;2023-12-04T06:04:08;9;9;
55485;PMS5003;71262;-25.924;28.194;2023-12-04T06:06:33;9;8;
55485;PMS5003;71262;-25.924;28.194;2023-12-04T06:08:58;9;8;
55485;PMS5003;71262;-25.924;28.194;2023-12-04T06:11:23;7;7;
55485;PMS5003;71262;-25.924;28.194;2023-12-04T06:13:48;11;9;
55485;PMS5003;71262;-25.924;28.194;2023-12-04T06:16:13;11;10;
55485;PMS5003;71262;-25.924;28.194;2023-12-04T06:18:38;10;8;
55485;PMS5003;71262;-25.924;28.194;2023-12-04T06:21:04;10;9;
55485;PMS5003;71262;-25.924;28.194;2023-12-04T06:23:29;9;9;
55485;PMS5003;71262;-25.924;28.194;2023-12-04T06:25:54;6;6;
55485;PMS5003;71262;-25.924;28.194;2023-12-04T06:28:19;8;7;
55485;PMS5003;71262;-25.924;28.194;2023-12-04T06:30:44;8;8;
55485;PMS5003;71262;-25.924;28.194;2023-12-04T06:33:09;8;8;
55485;PMS5003;71262;-25.924;28.194;2023-12-04T06:35:34;7;7;
55485;PMS5003;71262;-25.924;28.194;2023-12-04T06:37:59;8;8;
55485;PMS5003;71262;-25.924;28.194;2023-12-04T06:40:24;7;7;
55485;PMS5003;71262;-25.924;28.194;2023-12-04T06:42:49;7;7;
55485;PMS5003;71262;-25.924;28.194;2023-12-04T06:45:14;7;6;
55485;PMS5003;71262;-25.924;28.194;2023-12-04T06:47:40;7;7;
55485;PMS5003;71262;-25.924;28.194;2023-12-04T06:50:05;6;5;
55485;PMS5003;71262;-25.924;28.194;2023-12-04T06:52:29;5;5;
55485;PMS5003;71262;-25.924;28.194;2023-12-04T06:54:55;7;7;
55485;PMS5003;71262;-25.924;28.194;2023-12-04T06:57:20;7;6;
55485;PMS5003;71262;-25.924;28.194;2023-12-04T06:59:45;7;7;
55485;PMS5003;71262;-25.924;28.194;2023-12-04T07:02:10;9;6;
55485;PMS5003;71262;-25.924;28.194;2023-12-04T07:04:35;9;6;
55485;PMS5003;71262;-25.924;28.194;2023-12-04T07:07:00;8;7;
55485;PMS5003;71262;-25.924;28.194;2023-12-04T07:09:25;6;5;
55485;PMS5003;71262;-25.924;28.194;2023-12-04T07:11:50;8;7;
55485;PMS5003;71262;-25.924;28.194;2023-12-04T07:14:15;6;6;
55485;PMS5003;71262;-25.924;28.194;2023-12-04T07:16:40;6;6;
55485;PMS5003;71262;-25.924;28.194;2023-12-04T07:19:05;7;6;
55485;PMS5003;71262;-25.924;28.194;2023-12-04T07:21:30;4;4;
55485;PMS5003;71262;-25.924;28.194;2023-12-04T07:23:55;5;5;
55485;PMS5003;71262;-25.924;28.194;2023-12-04T07:26:21;5;5;
55485;PMS5003;71262;-25.924;28.194;2023-12-04T07:28:45;6;5;
55485;PMS5003;71262;-25.924;28.194;2023-12-04T07:31:10;6;6;
55485;PMS5003;71262;-25.924;28.194;2023-12-04T07:33:35;5;5;
55485;PMS5003;71262;-25.924;28.194;2023-12-04T07:36:01;5;4;
55485;PMS5003;71262;-25.924;28.194;2023-12-04T07:38:26;6;5;
55485;PMS5003;71262;-25.924;28.194;2023-12-04T07:40:50;4;4;
55485;PMS5003;71262;-25.924;28.194;2023-12-04T07:43:16;6;5;
55485;PMS5003;71262;-25.924;28.194;2023-12-04T07:45:41;5;4;
55485;PMS5003;71262;-25.924;28.194;2023-12-04T07:48:06;6;4;
55485;PMS5003;71262;-25.924;28.194;2023-12-04T07:50:31;6;5;
55485;PMS5003;71262;-25.924;28.194;2023-12-04T07:52:56;4;4;
55485;PMS5003;71262;-25.924;28.194;2023-12-04T07:55:21;5;5;
55485;PMS5003;71262;-25.924;28.194;2023-12-04T07:57:46;4;4;
55485;PMS5003;71262;-25.924;28.194;2023-12-04T08:00:11;4;4;
55485;PMS5003;71262;-25.924;28.194;2023-12-04T08:02:36;4;3;
55485;PMS5003;71262;-25.924;28.194;2023-12-04T08:05:01;6;6;
55485;PMS5003;71262;-25.924;28.194;2023-12-04T08:07:27;7;5;
55485;PMS5003;71262;-25.924;28.194;2023-12-04T08:09:52;4;4;
55485;PMS5003;71262;-25.924;28.194;2023-12-04T08:12:18;39;27;
55485;PMS5003;71262;-25.924;28.194;2023-12-04T08:14:43;20;16;
55485;PMS5003;71262;-25.924;28.194;2023-12-04T08:17:08;10;10;
55485;PMS5003;71262;-25.924;28.194;2023-12-04T08:19:33;7;7;
55485;PMS5003;71262;-25.924;28.194;2023-12-04T08:21:58;8;7;
55485;PMS5003;71262;-25.924;28.194;2023-12-04T08:24:23;7;7;
55485;PMS5003;71262;-25.924;28.194;2023-12-04T08:26:48;7;7;
55485;PMS5003;71262;-25.924;28.194;2023-12-04T08:29:13;7;7;
55485;PMS5003;71262;-25.924;28.194;2023-12-04T08:31:38;7;7;
55485;PMS5003;71262;-25.924;28.194;2023-12-04T08:34:03;9;7;
55485;PMS5003;71262;-25.924;28.194;2023-12-04T08:36:28;8;7;
55485;PMS5003;71262;-25.924;28.194;2023-12-04T08:38:54;8;7;
55485;PMS5003;71262;-25.924;28.194;2023-12-04T08:41:19;11;9;
55485;PMS5003;71262;-25.924;28.194;2023-12-04T08:43:44;10;7;
55485;PMS5003;71262;-25.924;28.194;2023-12-04T08:46:11;20;14;
55485;PMS5003;71262;-25.924;28.194;2023-12-04T08:48:35;19;14;
55485;PMS5003;71262;-25.924;28.194;2023-12-04T08:51:01;21;15;
55485;PMS5003;71262;-25.924;28.194;2023-12-04T08:53:26;21;16;
55485;PMS5003;71262;-25.924;28.194;2023-12-04T08:55:51;24;17;
55485;PMS5003;71262;-25.924;28.194;2023-12-04T08:58:17;23;17;
55485;PMS5003;71262;-25.924;28.194;2023-12-04T09:00:43;13;11;
55485;PMS5003;71262;-25.924;28.194;2023-12-04T09:03:08;14;13;
55485;PMS5003;71262;-25.924;28.194;2023-12-04T09:05:33;14;11;
55485;PMS5003;71262;-25.924;28.194;2023-12-04T09:07:58;12;11;
55485;PMS5003;71262;-25.924;28.194;2023-12-04T09:10:23;11;10;
55485;PMS5003;71262;-25.924;28.194;2023-12-04T09:12:48;8;8;
55485;PMS5003;71262;-25.924;28.194;2023-12-04T09:15:13;10;9;
55485;PMS5003;71262;-25.924;28.194;2023-12-04T09:17:38;16;12;
55485;PMS5003;71262;-25.924;28.194;2023-12-04T09:20:03;8;7;
55485;PMS5003;71262;-25.924;28.194;2023-12-04T09:22:28;9;8;
55485;PMS5003;71262;-25.924;28.194;2023-12-04T09:24:53;6;6;
55485;PMS5003;71262;-25.924;28.194;2023-12-04T09:27:18;6;6;
55485;PMS5003;71262;-25.924;28.194;2023-12-04T09:29:43;8;5;
55485;PMS5003;71262;-25.924;28.194;2023-12-04T09:32:09;5;5;
55485;PMS5003;71262;-25.924;28.194;2023-12-04T09:34:34;9;7;
55485;PMS5003;71262;-25.924;28.194;2023-12-04T09:36:59;6;6;
55485;PMS5003;71262;-25.924;28.194;2023-12-04T09:39:25;6;6;
55485;PMS5003;71262;-25.924;28.194;2023-12-04T09:41:50;6;6;
55485;PMS5003;71262;-25.924;28.194;2023-12-04T09:44:15;7;6;
55485;PMS5003;71262;-25.924;28.194;2023-12-04T09:46:40;6;6;
55485;PMS5003;71262;-25.924;28.194;2023-12-04T09:49:05;6;6;
55485;PMS5003;71262;-25.924;28.194;2023-12-04T09:51:30;8;7;
55485;PMS5003;71262;-25.924;28.194;2023-12-04T09:53:56;7;6;
55485;PMS5003;71262;-25.924;28.194;2023-12-04T09:56:20;5;5;
55485;PMS5003;71262;-25.924;28.194;2023-12-04T09:58:45;7;7;
55485;PMS5003;71262;-25.924;28.194;2023-12-04T10:01:10;7;7;
55485;PMS5003;71262;-25.924;28.194;2023-12-04T10:03:36;7;6;
55485;PMS5003;71262;-25.924;28.194;2023-12-04T10:06:00;6;5;
55485;PMS5003;71262;-25.924;28.194;2023-12-04T10:08:25;5;5;
55485;PMS5003;71262;-25.924;28.194;2023-12-04T10:10:50;7;6;
55485;PMS5003;71262;-25.924;28.194;2023-12-04T10:13:15;6;6;
55485;PMS5003;71262;-25.924;28.194;2023-12-04T10:18:06;7;7;
55485;PMS5003;71262;-25.924;28.194;2023-12-04T10:20:31;4;4;
55485;PMS5003;71262;-25.924;28.194;2023-12-04T10:22:56;8;7;
55485;PMS5003;71262;-25.924;28.194;2023-12-04T10:25:21;5;5;
55485;PMS5003;71262;-25.924;28.194;2023-12-04T10:27:46;6;6;
55485;PMS5003;71262;-25.924;28.194;2023-12-04T10:32:36;6;6;
55485;PMS5003;71262;-25.924;28.194;2023-12-04T10:35:01;8;7;
55485;PMS5003;71262;-25.924;28.194;2023-12-04T10:37:26;6;5;
55485;PMS5003;71262;-25.924;28.194;2023-12-04T10:39:51;7;6;
55485;PMS5003;71262;-25.924;28.194;2023-12-04T10:44:41;6;6;
55485;PMS5003;71262;-25.924;28.194;2023-12-04T10:47:07;8;7;
55485;PMS5003;71262;-25.924;28.194;2023-12-04T10:49:32;5;5;
55485;PMS5003;71262;-25.924;28.194;2023-12-04T10:51:58;6;6;
55485;PMS5003;71262;-25.924;28.194;2023-12-04T10:54:21;7;6;
55485;PMS5003;71262;-25.924;28.194;2023-12-04T10:56:46;6;6;
55485;PMS5003;71262;-25.924;28.194;2023-12-04T10:59:12;7;7;
55485;PMS5003;71262;-25.924;28.194;2023-12-04T11:01:37;7;6;
55485;PMS5003;71262;-25.924;28.194;2023-12-04T11:04:02;7;7;
55485;PMS5003;71262;-25.924;28.194;2023-12-04T11:06:27;6;5;
55485;PMS5003;71262;-25.924;28.194;2023-12-04T11:08:52;7;7;
55485;PMS5003;71262;-25.924;28.194;2023-12-04T11:11:21;8;7;
55485;PMS5003;71262;-25.924;28.194;2023-12-04T11:13:42;8;7;
55485;PMS5003;71262;-25.924;28.194;2023-12-04T11:16:09;7;6;
55485;PMS5003;71262;-25.924;28.194;2023-12-04T11:18:34;7;7;
55485;PMS5003;71262;-25.924;28.194;2023-12-04T11:20:58;8;7;
55485;PMS5003;71262;-25.924;28.194;2023-12-04T11:23:22;8;6;
55485;PMS5003;71262;-25.924;28.194;2023-12-04T11:25:47;6;6;
55485;PMS5003;71262;-25.924;28.194;2023-12-04T11:28:12;8;7;
55485;PMS5003;71262;-25.924;28.194;2023-12-04T11:30:37;6;6;
55485;PMS5003;71262;-25.924;28.194;2023-12-04T11:33:04;7;7;
55485;PMS5003;71262;-25.924;28.194;2023-12-04T11:35:28;7;6;
55485;PMS5003;71262;-25.924;28.194;2023-12-04T11:37:53;7;7;
55485;PMS5003;71262;-25.924;28.194;2023-12-04T11:40:18;7;7;
55485;PMS5003;71262;-25.924;28.194;2023-12-04T11:42:43;6;6;
55485;PMS5003;71262;-25.924;28.194;2023-12-04T11:45:08;9;8;
55485;PMS5003;71262;-25.924;28.194;2023-12-04T11:49:58;8;8;
55485;PMS5003;71262;-25.924;28.194;2023-12-04T11:59:39;7;7;
55485;PMS5003;71262;-25.924;28.194;2023-12-04T12:02:04;11;10;
55485;PMS5003;71262;-25.924;28.194;2023-12-04T12:04:28;6;5;
55485;PMS5003;71262;-25.924;28.194;2023-12-04T12:06:54;8;7;
55485;PMS5003;71262;-25.924;28.194;2023-12-04T12:09:19;10;9;
55485;PMS5003;71262;-25.924;28.194;2023-12-04T12:11:44;7;7;
55485;PMS5003;71262;-25.924;28.194;2023-12-04T12:14:09;8;7;
55485;PMS5003;71262;-25.924;28.194;2023-12-04T12:16:34;9;8;
55485;PMS5003;71262;-25.924;28.194;2023-12-04T12:19:00;7;7;
55485;PMS5003;71262;-25.924;28.194;2023-12-04T12:21:25;8;7;
55485;PMS5003;71262;-25.924;28.194;2023-12-04T12:23:49;5;5;
55485;PMS5003;71262;-25.924;28.194;2023-12-04T12:26:14;7;7;
55485;PMS5003;71262;-25.924;28.194;2023-12-04T12:28:39;7;7;
55485;PMS5003;71262;-25.924;28.194;2023-12-04T12:31:04;5;4;
55485;PMS5003;71262;-25.924;28.194;2023-12-04T12:33:29;7;7;
55485;PMS5003;71262;-25.924;28.194;2023-12-04T12:35:54;7;7;
55485;PMS5003;71262;-25.924;28.194;2023-12-04T12:38:19;9;9;
55485;PMS5003;71262;-25.924;28.194;2023-12-04T12:40:45;7;7;
55485;PMS5003;71262;-25.924;28.194;2023-12-04T12:43:10;8;7;
55485;PMS5003;71262;-25.924;28.194;2023-12-04T12:48:00;9;8;
55485;PMS5003;71262;-25.924;28.194;2023-12-04T12:50:26;8;7;
55485;PMS5003;71262;-25.924;28.194;2023-12-04T12:52:50;7;7;
55485;PMS5003;71262;-25.924;28.194;2023-12-04T12:57:40;9;9;
55485;PMS5003;71262;-25.924;28.194;2023-12-04T13:00:06;10;8;
55485;PMS5003;71262;-25.924;28.194;2023-12-04T13:02:33;9;9;
55485;PMS5003;71262;-25.924;28.194;2023-12-04T13:04:55;10;10;
55485;PMS5003;71262;-25.924;28.194;2023-12-04T13:07:20;8;8;
55485;PMS5003;71262;-25.924;28.194;2023-12-04T13:09:45;8;8;
55485;PMS5003;71262;-25.924;28.194;2023-12-04T13:12:12;8;8;
55485;PMS5003;71262;-25.924;28.194;2023-12-04T13:14:36;9;9;
55485;PMS5003;71262;-25.924;28.194;2023-12-04T13:17:01;10;9;
55485;PMS5003;71262;-25.924;28.194;2023-12-04T13:19:26;10;10;
55485;PMS5003;71262;-25.924;28.194;2023-12-04T13:21:51;12;11;
55485;PMS5003;71262;-25.924;28.194;2023-12-04T13:24:16;9;9;
55485;PMS5003;71262;-25.924;28.194;2023-12-04T13:26:41;12;10;
55485;PMS5003;71262;-25.924;28.194;2023-12-04T13:29:06;9;8;
55485;PMS5003;71262;-25.924;28.194;2023-12-04T13:31:31;11;10;
55485;PMS5003;71262;-25.924;28.194;2023-12-04T13:33:56;10;10;
55485;PMS5003;71262;-25.924;28.194;2023-12-04T13:36:21;12;12;
55485;PMS5003;71262;-25.924;28.194;2023-12-04T13:38:46;15;15;
55485;PMS5003;71262;-25.924;28.194;2023-12-04T13:41:12;13;12;
55485;PMS5003;71262;-25.924;28.194;2023-12-04T13:43:37;10;9;
55485;PMS5003;71262;-25.924;28.194;2023-12-04T13:46:02;11;11;
55485;PMS5003;71262;-25.924;28.194;2023-12-04T13:48:27;10;10;
55485;PMS5003;71262;-25.924;28.194;2023-12-04T13:50:52;14;12;
55485;PMS5003;71262;-25.924;28.194;2023-12-04T13:53:17;13;13;
55485;PMS5003;71262;-25.924;28.194;2023-12-04T13:55:42;14;13;
55485;PMS5003;71262;-25.924;28.194;2023-12-04T13:58:07;12;11;
55485;PMS5003;71262;-25.924;28.194;2023-12-04T14:00:32;12;12;
55485;PMS5003;71262;-25.924;28.194;2023-12-04T14:02:58;10;9;
55485;PMS5003;71262;-25.924;28.194;2023-12-04T14:05:23;10;10;
55485;PMS5003;71262;-25.924;28.194;2023-12-04T14:07:48;11;10;
55485;PMS5003;71262;-25.924;28.194;2023-12-04T14:10:13;11;10;
55485;PMS5003;71262;-25.924;28.194;2023-12-04T14:12:38;12;10;
55485;PMS5003;71262;-25.924;28.194;2023-12-04T14:15:04;9;9;
55485;PMS5003;71262;-25.924;28.194;2023-12-04T14:17:28;12;12;
55485;PMS5003;71262;-25.924;28.194;2023-12-04T14:19:53;12;12;
55485;PMS5003;71262;-25.924;28.194;2023-12-04T14:22:18;13;13;
55485;PMS5003;71262;-25.924;28.194;2023-12-04T14:24:43;12;12;
55485;PMS5003;71262;-25.924;28.194;2023-12-04T14:27:08;11;10;
55485;PMS5003;71262;-25.924;28.194;2023-12-04T14:29:33;12;11;
55485;PMS5003;71262;-25.924;28.194;2023-12-04T14:31:59;9;9;
55485;PMS5003;71262;-25.924;28.194;2023-12-04T14:34:24;14;13;
55485;PMS5003;71262;-25.924;28.194;2023-12-04T14:36:49;13;12;
55485;PMS5003;71262;-25.924;28.194;2023-12-04T14:39:14;12;11;
55485;PMS5003;71262;-25.924;28.194;2023-12-04T14:41:39;12;12;
55485;PMS5003;71262;-25.924;28.194;2023-12-04T14:44:05;13;12;
55485;PMS5003;71262;-25.924;28.194;2023-12-04T14:46:30;12;12;
55485;PMS5003;71262;-25.924;28.194;2023-12-04T14:48:55;12;11;
55485;PMS5003;71262;-25.924;28.194;2023-12-04T14:51:20;12;11;
55485;PMS5003;71262;-25.924;28.194;2023-12-04T14:53:45;11;11;
55485;PMS5003;71262;-25.924;28.194;2023-12-04T14:56:11;12;11;
55485;PMS5003;71262;-25.924;28.194;2023-12-04T14:58:36;14;12;
55485;PMS5003;71262;-25.924;28.194;2023-12-04T15:01:01;10;10;
55485;PMS5003;71262;-25.924;28.194;2023-12-04T15:03:26;11;11;
55485;PMS5003;71262;-25.924;28.194;2023-12-04T15:05:51;13;11;
55485;PMS5003;71262;-25.924;28.194;2023-12-04T15:08:16;12;10;
55485;PMS5003;71262;-25.924;28.194;2023-12-04T15:10:41;12;11;
55485;PMS5003;71262;-25.924;28.194;2023-12-04T15:13:06;11;11;
55485;PMS5003;71262;-25.924;28.194;2023-12-04T15:15:31;12;12;
55485;PMS5003;71262;-25.924;28.194;2023-12-04T15:17:56;13;12;
55485;PMS5003;71262;-25.924;28.194;2023-12-04T15:20:21;12;11;
55485;PMS5003;71262;-25.924;28.194;2023-12-04T15:22:46;13;12;
55485;PMS5003;71262;-25.924;28.194;2023-12-04T15:25:12;12;12;
55485;PMS5003;71262;-25.924;28.194;2023-12-04T15:27:37;15;12;
55485;PMS5003;71262;-25.924;28.194;2023-12-04T15:30:02;10;9;
55485;PMS5003;71262;-25.924;28.194;2023-12-04T15:32:27;11;11;
55485;PMS5003;71262;-25.924;28.194;2023-12-04T15:34:52;11;11;
55485;PMS5003;71262;-25.924;28.194;2023-12-04T15:37:17;12;12;
55485;PMS5003;71262;-25.924;28.194;2023-12-04T15:39:44;11;10;
55485;PMS5003;71262;-25.924;28.194;2023-12-04T15:42:08;12;12;
55485;PMS5003;71262;-25.924;28.194;2023-12-04T15:44:33;11;11;
55485;PMS5003;71262;-25.924;28.194;2023-12-04T15:46:58;12;11;
55485;PMS5003;71262;-25.924;28.194;2023-12-04T15:49:24;11;11;
55485;PMS5003;71262;-25.924;28.194;2023-12-04T15:51:49;14;14;
55485;PMS5003;71262;-25.924;28.194;2023-12-04T15:54:14;13;13;
55485;PMS5003;71262;-25.924;28.194;2023-12-04T15:56:39;18;14;
55485;PMS5003;71262;-25.924;28.194;2023-12-04T15:59:04;16;15;
55485;PMS5003;71262;-25.924;28.194;2023-12-04T16:01:30;12;12;
55485;PMS5003;71262;-25.924;28.194;2023-12-04T16:03:55;16;15;
55485;PMS5003;71262;-25.924;28.194;2023-12-04T16:06:20;16;15;
55485;PMS5003;71262;-25.924;28.194;2023-12-04T16:08:45;14;14;
55485;PMS5003;71262;-25.924;28.194;2023-12-04T16:11:10;15;14;